sensor_id;sensor_type;location;lat;lon;timestamp;P1;durP1;ratioP1;P2;durP2;ratioP2
20986;SDS011;10652;50.306;8.570;2023-07-02T00:02:32;1.98;;;1.42;;
20986;SDS011;10652;50.306;8.570;2023-07-02T00:06:34;2.70;;;1.40;;
20986;SDS011;10652;50.306;8.570;2023-07-02T00:10:43;2.40;;;1.40;;
20986;SDS011;10652;50.306;8.570;2023-07-02T00:14:45;4.38;;;1.50;;
20986;SDS011;10652;50.306;8.570;2023-07-02T00:18:47;3.40;;;1.45;;
20986;SDS011;10652;50.306;8.570;2023-07-02T00:22:54;4.40;;;1.48;;
20986;SDS011;10652;50.306;8.570;2023-07-02T00:26:56;3.88;;;1.40;;
20986;SDS011;10652;50.306;8.570;2023-07-02T00:30:58;1.40;;;1.30;;
20986;SDS011;10652;50.306;8.570;2023-07-02T00:35:01;7.60;;;4.13;;
20986;SDS011;10652;50.306;8.570;2023-07-02T00:39:03;4.18;;;1.80;;
20986;SDS011;10652;50.306;8.570;2023-07-02T00:43:05;2.15;;;1.20;;
20986;SDS011;10652;50.306;8.570;2023-07-02T00:47:08;2.45;;;1.20;;
20986;SDS011;10652;50.306;8.570;2023-07-02T00:51:11;4.03;;;1.30;;
20986;SDS011;10652;50.306;8.570;2023-07-02T00:55:16;4.40;;;1.10;;
20986;SDS011;10652;50.306;8.570;2023-07-02T00:59:18;5.53;;;1.48;;
20986;SDS011;10652;50.306;8.570;2023-07-02T01:03:20;4.18;;;1.30;;
20986;SDS011;10652;50.306;8.570;2023-07-02T01:07:23;2.50;;;1.10;;
20986;SDS011;10652;50.306;8.570;2023-07-02T01:11:34;3.72;;;1.63;;
20986;SDS011;10652;50.306;8.570;2023-07-02T01:15:39;3.65;;;1.30;;
20986;SDS011;10652;50.306;8.570;2023-07-02T01:19:42;4.57;;;1.85;;
20986;SDS011;10652;50.306;8.570;2023-07-02T01:23:47;3.25;;;1.48;;
20986;SDS011;10652;50.306;8.570;2023-07-02T01:27:49;2.33;;;1.50;;
20986;SDS011;10652;50.306;8.570;2023-07-02T01:31:52;5.03;;;1.35;;
20986;SDS011;10652;50.306;8.570;2023-07-02T01:35:54;2.63;;;1.25;;
20986;SDS011;10652;50.306;8.570;2023-07-02T01:39:56;3.83;;;1.58;;
20986;SDS011;10652;50.306;8.570;2023-07-02T01:43:58;4.53;;;1.60;;
20986;SDS011;10652;50.306;8.570;2023-07-02T01:48:00;3.53;;;1.27;;
20986;SDS011;10652;50.306;8.570;2023-07-02T01:52:03;3.45;;;1.27;;
20986;SDS011;10652;50.306;8.570;2023-07-02T01:56:06;2.53;;;1.30;;
20986;SDS011;10652;50.306;8.570;2023-07-02T02:00:08;4.57;;;1.77;;
20986;SDS011;10652;50.306;8.570;2023-07-02T02:04:16;3.20;;;1.30;;
20986;SDS011;10652;50.306;8.570;2023-07-02T02:08:19;2.70;;;1.80;;
20986;SDS011;10652;50.306;8.570;2023-07-02T02:12:21;2.67;;;1.70;;
20986;SDS011;10652;50.306;8.570;2023-07-02T02:16:23;3.20;;;1.40;;
20986;SDS011;10652;50.306;8.570;2023-07-02T02:20:26;4.18;;;1.35;;
20986;SDS011;10652;50.306;8.570;2023-07-02T02:24:28;2.67;;;1.52;;
20986;SDS011;10652;50.306;8.570;2023-07-02T02:28:30;4.47;;;1.40;;
20986;SDS011;10652;50.306;8.570;2023-07-02T02:32:32;2.05;;;1.38;;
20986;SDS011;10652;50.306;8.570;2023-07-02T02:36:35;1.65;;;1.33;;
20986;SDS011;10652;50.306;8.570;2023-07-02T02:40:37;3.20;;;1.50;;
20986;SDS011;10652;50.306;8.570;2023-07-02T02:44:42;3.30;;;1.58;;
20986;SDS011;10652;50.306;8.570;2023-07-02T02:48:44;3.13;;;1.55;;
20986;SDS011;10652;50.306;8.570;2023-07-02T02:52:46;1.63;;;1.23;;
20986;SDS011;10652;50.306;8.570;2023-07-02T02:56:48;2.67;;;1.30;;
20986;SDS011;10652;50.306;8.570;2023-07-02T03:00:50;3.95;;;1.60;;
20986;SDS011;10652;50.306;8.570;2023-07-02T03:04:53;4.57;;;1.80;;
20986;SDS011;10652;50.306;8.570;2023-07-02T03:08:55;3.67;;;1.83;;
20986;SDS011;10652;50.306;8.570;2023-07-02T03:12:57;4.13;;;1.65;;
20986;SDS011;10652;50.306;8.570;2023-07-02T03:17:00;5.40;;;2.25;;
20986;SDS011;10652;50.306;8.570;2023-07-02T03:21:02;4.50;;;2.00;;
20986;SDS011;10652;50.306;8.570;2023-07-02T03:25:04;4.32;;;2.13;;
20986;SDS011;10652;50.306;8.570;2023-07-02T03:29:07;10.23;;;3.00;;
20986;SDS011;10652;50.306;8.570;2023-07-02T03:33:09;6.70;;;2.78;;
20986;SDS011;10652;50.306;8.570;2023-07-02T03:37:14;5.93;;;2.83;;
20986;SDS011;10652;50.306;8.570;2023-07-02T03:41:16;6.75;;;3.63;;
20986;SDS011;10652;50.306;8.570;2023-07-02T03:45:18;6.32;;;3.47;;
20986;SDS011;10652;50.306;8.570;2023-07-02T03:49:20;6.82;;;3.58;;
20986;SDS011;10652;50.306;8.570;2023-07-02T03:53:22;7.93;;;4.15;;
20986;SDS011;10652;50.306;8.570;2023-07-02T03:57:24;7.40;;;3.85;;
20986;SDS011;10652;50.306;8.570;2023-07-02T04:01:28;6.45;;;3.60;;
20986;SDS011;10652;50.306;8.570;2023-07-02T04:05:30;7.32;;;3.85;;
20986;SDS011;10652;50.306;8.570;2023-07-02T04:09:32;8.90;;;4.20;;
20986;SDS011;10652;50.306;8.570;2023-07-02T04:13:34;8.60;;;4.10;;
20986;SDS011;10652;50.306;8.570;2023-07-02T04:17:36;9.32;;;4.13;;
20986;SDS011;10652;50.306;8.570;2023-07-02T04:21:39;8.27;;;4.22;;
20986;SDS011;10652;50.306;8.570;2023-07-02T04:25:41;7.50;;;4.10;;
20986;SDS011;10652;50.306;8.570;2023-07-02T04:30:03;8.38;;;4.28;;
20986;SDS011;10652;50.306;8.570;2023-07-02T04:34:07;8.27;;;4.55;;
20986;SDS011;10652;50.306;8.570;2023-07-02T04:38:09;8.82;;;4.45;;
20986;SDS011;10652;50.306;8.570;2023-07-02T04:42:11;8.50;;;4.07;;
20986;SDS011;10652;50.306;8.570;2023-07-02T04:46:15;9.25;;;4.63;;
20986;SDS011;10652;50.306;8.570;2023-07-02T04:50:19;11.63;;;5.57;;
20986;SDS011;10652;50.306;8.570;2023-07-02T04:54:22;10.60;;;5.45;;
20986;SDS011;10652;50.306;8.570;2023-07-02T04:58:24;9.85;;;4.90;;
20986;SDS011;10652;50.306;8.570;2023-07-02T05:02:27;14.07;;;5.72;;
20986;SDS011;10652;50.306;8.570;2023-07-02T05:06:29;9.63;;;5.15;;
20986;SDS011;10652;50.306;8.570;2023-07-02T05:10:31;11.98;;;6.22;;
20986;SDS011;10652;50.306;8.570;2023-07-02T05:14:33;10.90;;;5.60;;
20986;SDS011;10652;50.306;8.570;2023-07-02T05:18:35;10.00;;;6.22;;
20986;SDS011;10652;50.306;8.570;2023-07-02T05:22:38;15.25;;;6.97;;
20986;SDS011;10652;50.306;8.570;2023-07-02T05:26:40;14.05;;;6.53;;
20986;SDS011;10652;50.306;8.570;2023-07-02T05:30:42;12.15;;;6.55;;
20986;SDS011;10652;50.306;8.570;2023-07-02T05:34:44;11.02;;;6.30;;
20986;SDS011;10652;50.306;8.570;2023-07-02T05:38:46;13.27;;;6.53;;
20986;SDS011;10652;50.306;8.570;2023-07-02T05:42:48;11.68;;;6.50;;
20986;SDS011;10652;50.306;8.570;2023-07-02T05:46:50;11.65;;;7.15;;
20986;SDS011;10652;50.306;8.570;2023-07-02T05:50:52;13.23;;;7.30;;
20986;SDS011;10652;50.306;8.570;2023-07-02T05:54:55;11.10;;;6.85;;
20986;SDS011;10652;50.306;8.570;2023-07-02T05:58:57;12.35;;;6.72;;
20986;SDS011;10652;50.306;8.570;2023-07-02T06:02:59;12.93;;;6.60;;
20986;SDS011;10652;50.306;8.570;2023-07-02T06:07:02;10.85;;;6.85;;
20986;SDS011;10652;50.306;8.570;2023-07-02T06:11:04;12.27;;;6.70;;
20986;SDS011;10652;50.306;8.570;2023-07-02T06:15:06;13.32;;;7.30;;
20986;SDS011;10652;50.306;8.570;2023-07-02T06:19:09;14.30;;;7.53;;
20986;SDS011;10652;50.306;8.570;2023-07-02T06:23:11;13.30;;;7.20;;
20986;SDS011;10652;50.306;8.570;2023-07-02T06:27:13;10.45;;;6.78;;
20986;SDS011;10652;50.306;8.570;2023-07-02T06:31:15;12.35;;;6.90;;
20986;SDS011;10652;50.306;8.570;2023-07-02T06:35:18;13.40;;;7.68;;
20986;SDS011;10652;50.306;8.570;2023-07-02T06:39:20;11.45;;;7.45;;
20986;SDS011;10652;50.306;8.570;2023-07-02T06:43:22;14.80;;;8.18;;
20986;SDS011;10652;50.306;8.570;2023-07-02T06:47:24;15.02;;;8.32;;
20986;SDS011;10652;50.306;8.570;2023-07-02T06:51:27;13.10;;;7.70;;
20986;SDS011;10652;50.306;8.570;2023-07-02T06:55:30;13.55;;;7.85;;
20986;SDS011;10652;50.306;8.570;2023-07-02T06:59:32;10.18;;;7.20;;
20986;SDS011;10652;50.306;8.570;2023-07-02T07:03:35;11.55;;;7.53;;
20986;SDS011;10652;50.306;8.570;2023-07-02T07:07:37;16.58;;;8.20;;
20986;SDS011;10652;50.306;8.570;2023-07-02T07:11:40;13.27;;;8.23;;
20986;SDS011;10652;50.306;8.570;2023-07-02T07:15:42;11.55;;;7.95;;
20986;SDS011;10652;50.306;8.570;2023-07-02T07:19:44;13.07;;;8.20;;
20986;SDS011;10652;50.306;8.570;2023-07-02T07:23:46;12.27;;;8.20;;
20986;SDS011;10652;50.306;8.570;2023-07-02T07:27:48;12.25;;;8.18;;
20986;SDS011;10652;50.306;8.570;2023-07-02T07:31:50;14.63;;;8.40;;
20986;SDS011;10652;50.306;8.570;2023-07-02T07:35:53;14.57;;;8.52;;
20986;SDS011;10652;50.306;8.570;2023-07-02T07:39:55;11.98;;;8.50;;
20986;SDS011;10652;50.306;8.570;2023-07-02T07:43:57;12.57;;;8.15;;
20986;SDS011;10652;50.306;8.570;2023-07-02T07:48:00;15.38;;;8.90;;
20986;SDS011;10652;50.306;8.570;2023-07-02T07:52:03;12.27;;;5.90;;
20986;SDS011;10652;50.306;8.570;2023-07-02T07:56:08;9.90;;;7.20;;
20986;SDS011;10652;50.306;8.570;2023-07-02T08:00:10;14.07;;;8.07;;
20986;SDS011;10652;50.306;8.570;2023-07-02T08:04:19;12.68;;;7.97;;
20986;SDS011;10652;50.306;8.570;2023-07-02T08:08:21;16.70;;;8.35;;
20986;SDS011;10652;50.306;8.570;2023-07-02T08:12:23;11.77;;;7.57;;
20986;SDS011;10652;50.306;8.570;2023-07-02T08:16:26;14.77;;;8.65;;
20986;SDS011;10652;50.306;8.570;2023-07-02T08:20:28;14.07;;;8.82;;
20986;SDS011;10652;50.306;8.570;2023-07-02T08:24:30;15.00;;;8.55;;
20986;SDS011;10652;50.306;8.570;2023-07-02T08:28:33;13.52;;;8.25;;
20986;SDS011;10652;50.306;8.570;2023-07-02T08:32:35;14.30;;;7.82;;
20986;SDS011;10652;50.306;8.570;2023-07-02T08:36:37;13.27;;;7.95;;
20986;SDS011;10652;50.306;8.570;2023-07-02T08:40:39;11.13;;;7.28;;
20986;SDS011;10652;50.306;8.570;2023-07-02T08:44:45;12.60;;;7.47;;
20986;SDS011;10652;50.306;8.570;2023-07-02T08:48:49;10.98;;;7.90;;
20986;SDS011;10652;50.306;8.570;2023-07-02T08:52:53;12.30;;;7.65;;
20986;SDS011;10652;50.306;8.570;2023-07-02T08:56:55;11.80;;;7.47;;
20986;SDS011;10652;50.306;8.570;2023-07-02T09:05:10;11.18;;;6.88;;
20986;SDS011;10652;50.306;8.570;2023-07-02T09:09:13;10.98;;;7.15;;
20986;SDS011;10652;50.306;8.570;2023-07-02T09:13:15;11.05;;;7.18;;
20986;SDS011;10652;50.306;8.570;2023-07-02T09:17:18;8.55;;;6.30;;
20986;SDS011;10652;50.306;8.570;2023-07-02T09:21:20;9.95;;;6.00;;
20986;SDS011;10652;50.306;8.570;2023-07-02T09:25:33;10.45;;;6.25;;
20986;SDS011;10652;50.306;8.570;2023-07-02T09:29:38;11.27;;;6.55;;
20986;SDS011;10652;50.306;8.570;2023-07-02T09:33:40;11.43;;;7.35;;
20986;SDS011;10652;50.306;8.570;2023-07-02T09:37:42;9.15;;;5.88;;
20986;SDS011;10652;50.306;8.570;2023-07-02T09:41:45;10.55;;;6.10;;
20986;SDS011;10652;50.306;8.570;2023-07-02T09:45:52;12.43;;;6.80;;
20986;SDS011;10652;50.306;8.570;2023-07-02T09:50:03;9.73;;;6.30;;
20986;SDS011;10652;50.306;8.570;2023-07-02T09:54:07;10.25;;;6.57;;
20986;SDS011;10652;50.306;8.570;2023-07-02T09:58:10;11.57;;;5.90;;
20986;SDS011;10652;50.306;8.570;2023-07-02T10:02:13;9.70;;;6.35;;
20986;SDS011;10652;50.306;8.570;2023-07-02T10:06:16;10.13;;;6.35;;
20986;SDS011;10652;50.306;8.570;2023-07-02T10:10:27;9.23;;;5.93;;
20986;SDS011;10652;50.306;8.570;2023-07-02T10:14:40;10.02;;;6.13;;
20986;SDS011;10652;50.306;8.570;2023-07-02T10:18:43;12.48;;;6.25;;
20986;SDS011;10652;50.306;8.570;2023-07-02T10:22:46;8.77;;;6.00;;
20986;SDS011;10652;50.306;8.570;2023-07-02T10:31:01;12.93;;;7.57;;
20986;SDS011;10652;50.306;8.570;2023-07-02T10:35:16;12.55;;;7.15;;
20986;SDS011;10652;50.306;8.570;2023-07-02T10:39:20;11.15;;;7.40;;
20986;SDS011;10652;50.306;8.570;2023-07-02T10:43:31;9.38;;;6.82;;
20986;SDS011;10652;50.306;8.570;2023-07-02T10:47:34;11.40;;;7.35;;
20986;SDS011;10652;50.306;8.570;2023-07-02T10:51:41;11.00;;;7.25;;
20986;SDS011;10652;50.306;8.570;2023-07-02T10:55:43;12.23;;;7.75;;
20986;SDS011;10652;50.306;8.570;2023-07-02T10:59:46;13.02;;;7.53;;
20986;SDS011;10652;50.306;8.570;2023-07-02T11:08:07;11.98;;;7.90;;
20986;SDS011;10652;50.306;8.570;2023-07-02T11:12:10;11.82;;;7.60;;
20986;SDS011;10652;50.306;8.570;2023-07-02T11:20:22;8.40;;;6.50;;
20986;SDS011;10652;50.306;8.570;2023-07-02T11:24:31;11.35;;;7.10;;
20986;SDS011;10652;50.306;8.570;2023-07-02T11:28:47;11.75;;;6.10;;
20986;SDS011;10652;50.306;8.570;2023-07-02T11:32:54;10.02;;;6.38;;
20986;SDS011;10652;50.306;8.570;2023-07-02T11:36:56;9.63;;;5.78;;
20986;SDS011;10652;50.306;8.570;2023-07-02T11:40:58;8.82;;;6.50;;
20986;SDS011;10652;50.306;8.570;2023-07-02T11:45:01;8.95;;;6.18;;
20986;SDS011;10652;50.306;8.570;2023-07-02T11:49:03;10.40;;;5.82;;
20986;SDS011;10652;50.306;8.570;2023-07-02T11:53:12;11.57;;;7.65;;
20986;SDS011;10652;50.306;8.570;2023-07-02T11:57:14;9.88;;;6.53;;
20986;SDS011;10652;50.306;8.570;2023-07-02T12:01:16;10.20;;;6.25;;
20986;SDS011;10652;50.306;8.570;2023-07-02T12:05:18;10.35;;;6.68;;
20986;SDS011;10652;50.306;8.570;2023-07-02T12:09:21;9.52;;;6.90;;
20986;SDS011;10652;50.306;8.570;2023-07-02T12:13:23;10.13;;;6.65;;
20986;SDS011;10652;50.306;8.570;2023-07-02T12:17:25;11.13;;;6.68;;
20986;SDS011;10652;50.306;8.570;2023-07-02T12:21:27;10.90;;;7.18;;
20986;SDS011;10652;50.306;8.570;2023-07-02T12:25:29;10.35;;;7.05;;
20986;SDS011;10652;50.306;8.570;2023-07-02T12:29:31;10.70;;;6.90;;
20986;SDS011;10652;50.306;8.570;2023-07-02T12:33:33;9.60;;;6.82;;
20986;SDS011;10652;50.306;8.570;2023-07-02T12:37:42;13.73;;;6.93;;
20986;SDS011;10652;50.306;8.570;2023-07-02T12:41:48;10.10;;;6.68;;
20986;SDS011;10652;50.306;8.570;2023-07-02T12:45:50;10.30;;;6.75;;
20986;SDS011;10652;50.306;8.570;2023-07-02T12:49:53;9.43;;;6.82;;
20986;SDS011;10652;50.306;8.570;2023-07-02T12:53:55;9.43;;;6.65;;
20986;SDS011;10652;50.306;8.570;2023-07-02T12:57:57;9.18;;;6.25;;
20986;SDS011;10652;50.306;8.570;2023-07-02T13:01:59;8.43;;;6.53;;
20986;SDS011;10652;50.306;8.570;2023-07-02T13:06:01;10.18;;;6.32;;
20986;SDS011;10652;50.306;8.570;2023-07-02T13:10:03;8.48;;;6.18;;
20986;SDS011;10652;50.306;8.570;2023-07-02T13:14:06;9.77;;;6.10;;
20986;SDS011;10652;50.306;8.570;2023-07-02T13:18:08;7.97;;;6.20;;
20986;SDS011;10652;50.306;8.570;2023-07-02T13:22:10;8.73;;;6.40;;
20986;SDS011;10652;50.306;8.570;2023-07-02T13:26:13;12.15;;;6.80;;
20986;SDS011;10652;50.306;8.570;2023-07-02T13:30:15;12.82;;;7.13;;
20986;SDS011;10652;50.306;8.570;2023-07-02T13:34:17;10.82;;;7.15;;
20986;SDS011;10652;50.306;8.570;2023-07-02T13:38:19;10.65;;;6.70;;
20986;SDS011;10652;50.306;8.570;2023-07-02T13:42:21;12.35;;;6.85;;
20986;SDS011;10652;50.306;8.570;2023-07-02T13:46:23;10.52;;;6.60;;
20986;SDS011;10652;50.306;8.570;2023-07-02T13:50:25;11.15;;;7.63;;
20986;SDS011;10652;50.306;8.570;2023-07-02T13:54:27;11.35;;;7.13;;
20986;SDS011;10652;50.306;8.570;2023-07-02T13:58:45;12.88;;;8.13;;
20986;SDS011;10652;50.306;8.570;2023-07-02T14:02:57;12.70;;;7.87;;
20986;SDS011;10652;50.306;8.570;2023-07-02T14:07:00;12.93;;;7.95;;
20986;SDS011;10652;50.306;8.570;2023-07-02T14:11:04;11.13;;;7.47;;
20986;SDS011;10652;50.306;8.570;2023-07-02T14:15:07;12.75;;;7.18;;
20986;SDS011;10652;50.306;8.570;2023-07-02T14:19:11;12.00;;;8.30;;
20986;SDS011;10652;50.306;8.570;2023-07-02T14:23:14;13.00;;;8.07;;
20986;SDS011;10652;50.306;8.570;2023-07-02T14:27:16;14.02;;;8.70;;
20986;SDS011;10652;50.306;8.570;2023-07-02T14:31:18;12.75;;;7.95;;
20986;SDS011;10652;50.306;8.570;2023-07-02T14:35:20;13.13;;;8.30;;
20986;SDS011;10652;50.306;8.570;2023-07-02T14:39:26;11.57;;;7.28;;
20986;SDS011;10652;50.306;8.570;2023-07-02T14:43:29;11.02;;;7.97;;
20986;SDS011;10652;50.306;8.570;2023-07-02T14:47:32;11.82;;;8.05;;
20986;SDS011;10652;50.306;8.570;2023-07-02T14:51:34;13.32;;;8.85;;
20986;SDS011;10652;50.306;8.570;2023-07-02T14:55:36;12.15;;;8.20;;
20986;SDS011;10652;50.306;8.570;2023-07-02T14:59:38;12.90;;;8.75;;
20986;SDS011;10652;50.306;8.570;2023-07-02T15:03:40;17.52;;;9.40;;
20986;SDS011;10652;50.306;8.570;2023-07-02T15:07:43;14.27;;;9.40;;
20986;SDS011;10652;50.306;8.570;2023-07-02T15:11:45;14.40;;;9.60;;
20986;SDS011;10652;50.306;8.570;2023-07-02T15:15:48;14.63;;;8.73;;
20986;SDS011;10652;50.306;8.570;2023-07-02T15:19:51;11.40;;;8.80;;
20986;SDS011;10652;50.306;8.570;2023-07-02T15:23:53;12.82;;;9.13;;
20986;SDS011;10652;50.306;8.570;2023-07-02T15:27:55;13.85;;;8.52;;
20986;SDS011;10652;50.306;8.570;2023-07-02T15:31:57;13.73;;;9.15;;
20986;SDS011;10652;50.306;8.570;2023-07-02T15:36:00;11.38;;;8.07;;
20986;SDS011;10652;50.306;8.570;2023-07-02T15:40:03;12.18;;;8.63;;
20986;SDS011;10652;50.306;8.570;2023-07-02T15:44:05;13.07;;;8.68;;
20986;SDS011;10652;50.306;8.570;2023-07-02T15:48:07;13.05;;;8.40;;
20986;SDS011;10652;50.306;8.570;2023-07-02T15:52:10;12.73;;;8.93;;
20986;SDS011;10652;50.306;8.570;2023-07-02T15:56:12;13.30;;;8.73;;
20986;SDS011;10652;50.306;8.570;2023-07-02T16:00:14;13.60;;;8.40;;
20986;SDS011;10652;50.306;8.570;2023-07-02T16:04:17;16.55;;;9.18;;
20986;SDS011;10652;50.306;8.570;2023-07-02T16:08:20;14.45;;;9.30;;
20986;SDS011;10652;50.306;8.570;2023-07-02T16:12:22;13.13;;;9.80;;
20986;SDS011;10652;50.306;8.570;2023-07-02T16:16:24;12.45;;;9.23;;
20986;SDS011;10652;50.306;8.570;2023-07-02T16:20:26;15.02;;;8.95;;
20986;SDS011;10652;50.306;8.570;2023-07-02T16:24:29;15.07;;;9.18;;
20986;SDS011;10652;50.306;8.570;2023-07-02T16:28:33;13.77;;;8.60;;
20986;SDS011;10652;50.306;8.570;2023-07-02T16:32:37;13.73;;;9.13;;
20986;SDS011;10652;50.306;8.570;2023-07-02T16:36:39;14.20;;;8.65;;
20986;SDS011;10652;50.306;8.570;2023-07-02T16:40:44;15.15;;;9.05;;
20986;SDS011;10652;50.306;8.570;2023-07-02T16:44:47;19.77;;;9.20;;
20986;SDS011;10652;50.306;8.570;2023-07-02T16:48:50;16.05;;;9.65;;
20986;SDS011;10652;50.306;8.570;2023-07-02T16:52:52;13.82;;;8.98;;
20986;SDS011;10652;50.306;8.570;2023-07-02T16:56:57;12.40;;;8.50;;
20986;SDS011;10652;50.306;8.570;2023-07-02T17:05:04;12.07;;;8.75;;
20986;SDS011;10652;50.306;8.570;2023-07-02T17:13:20;14.00;;;8.35;;
20986;SDS011;10652;50.306;8.570;2023-07-02T17:17:23;14.85;;;8.88;;
20986;SDS011;10652;50.306;8.570;2023-07-02T17:21:29;14.38;;;8.73;;
20986;SDS011;10652;50.306;8.570;2023-07-02T17:25:31;15.88;;;9.15;;
20986;SDS011;10652;50.306;8.570;2023-07-02T17:29:33;23.50;;;14.77;;
20986;SDS011;10652;50.306;8.570;2023-07-02T17:33:35;17.15;;;11.55;;
20986;SDS011;10652;50.306;8.570;2023-07-02T17:37:37;13.57;;;9.05;;
20986;SDS011;10652;50.306;8.570;2023-07-02T17:41:39;15.52;;;9.13;;
20986;SDS011;10652;50.306;8.570;2023-07-02T17:45:51;15.07;;;9.88;;
20986;SDS011;10652;50.306;8.570;2023-07-02T17:49:53;18.50;;;9.40;;
20986;SDS011;10652;50.306;8.570;2023-07-02T17:53:56;15.73;;;9.15;;
20986;SDS011;10652;50.306;8.570;2023-07-02T17:57:58;18.67;;;9.55;;
20986;SDS011;10652;50.306;8.570;2023-07-02T18:02:00;14.27;;;8.40;;
20986;SDS011;10652;50.306;8.570;2023-07-02T18:06:04;14.25;;;8.73;;
20986;SDS011;10652;50.306;8.570;2023-07-02T18:10:07;15.50;;;9.18;;
20986;SDS011;10652;50.306;8.570;2023-07-02T18:14:09;14.18;;;9.10;;
20986;SDS011;10652;50.306;8.570;2023-07-02T18:18:11;15.15;;;9.75;;
20986;SDS011;10652;50.306;8.570;2023-07-02T18:22:14;17.25;;;9.23;;
20986;SDS011;10652;50.306;8.570;2023-07-02T18:26:16;15.57;;;9.32;;
20986;SDS011;10652;50.306;8.570;2023-07-02T18:30:18;13.95;;;8.65;;
20986;SDS011;10652;50.306;8.570;2023-07-02T18:34:20;15.70;;;9.13;;
20986;SDS011;10652;50.306;8.570;2023-07-02T18:38:22;14.82;;;9.10;;
20986;SDS011;10652;50.306;8.570;2023-07-02T18:42:25;14.00;;;8.50;;
20986;SDS011;10652;50.306;8.570;2023-07-02T18:46:27;14.82;;;8.93;;
20986;SDS011;10652;50.306;8.570;2023-07-02T18:50:29;12.52;;;7.63;;
20986;SDS011;10652;50.306;8.570;2023-07-02T18:54:32;12.98;;;8.45;;
20986;SDS011;10652;50.306;8.570;2023-07-02T18:58:35;13.02;;;8.70;;
20986;SDS011;10652;50.306;8.570;2023-07-02T19:02:38;13.13;;;8.57;;
20986;SDS011;10652;50.306;8.570;2023-07-02T19:06:41;18.77;;;9.85;;
20986;SDS011;10652;50.306;8.570;2023-07-02T19:10:43;15.98;;;9.18;;
20986;SDS011;10652;50.306;8.570;2023-07-02T19:14:46;13.13;;;8.40;;
20986;SDS011;10652;50.306;8.570;2023-07-02T19:18:48;15.23;;;9.02;;
20986;SDS011;10652;50.306;8.570;2023-07-02T19:22:50;16.77;;;8.95;;
20986;SDS011;10652;50.306;8.570;2023-07-02T19:26:52;16.65;;;9.45;;
20986;SDS011;10652;50.306;8.570;2023-07-02T19:30:54;13.43;;;9.00;;
20986;SDS011;10652;50.306;8.570;2023-07-02T19:34:58;13.07;;;8.55;;
20986;SDS011;10652;50.306;8.570;2023-07-02T19:39:00;14.48;;;9.05;;
20986;SDS011;10652;50.306;8.570;2023-07-02T19:43:02;14.25;;;8.65;;
20986;SDS011;10652;50.306;8.570;2023-07-02T19:47:05;15.10;;;8.98;;
20986;SDS011;10652;50.306;8.570;2023-07-02T19:51:07;17.02;;;9.18;;
20986;SDS011;10652;50.306;8.570;2023-07-02T19:55:09;14.65;;;9.10;;
20986;SDS011;10652;50.306;8.570;2023-07-02T19:59:13;15.95;;;9.00;;
20986;SDS011;10652;50.306;8.570;2023-07-02T20:03:15;15.73;;;9.38;;
20986;SDS011;10652;50.306;8.570;2023-07-02T20:07:18;14.40;;;8.90;;
20986;SDS011;10652;50.306;8.570;2023-07-02T20:11:20;13.18;;;8.80;;
20986;SDS011;10652;50.306;8.570;2023-07-02T20:15:22;14.15;;;8.80;;
20986;SDS011;10652;50.306;8.570;2023-07-02T20:19:24;15.80;;;8.45;;
20986;SDS011;10652;50.306;8.570;2023-07-02T20:23:28;15.80;;;8.60;;
20986;SDS011;10652;50.306;8.570;2023-07-02T20:27:30;15.80;;;8.65;;
20986;SDS011;10652;50.306;8.570;2023-07-02T20:31:32;16.00;;;8.40;;
20986;SDS011;10652;50.306;8.570;2023-07-02T20:35:38;16.27;;;8.93;;
20986;SDS011;10652;50.306;8.570;2023-07-02T20:39:43;17.45;;;8.80;;
20986;SDS011;10652;50.306;8.570;2023-07-02T20:43:48;14.00;;;7.63;;
20986;SDS011;10652;50.306;8.570;2023-07-02T20:47:50;14.13;;;7.30;;
20986;SDS011;10652;50.306;8.570;2023-07-02T20:51:53;15.40;;;8.38;;
20986;SDS011;10652;50.306;8.570;2023-07-02T20:55:55;18.33;;;8.55;;
20986;SDS011;10652;50.306;8.570;2023-07-02T20:59:58;15.20;;;8.05;;
20986;SDS011;10652;50.306;8.570;2023-07-02T21:04:01;17.63;;;8.70;;
20986;SDS011;10652;50.306;8.570;2023-07-02T21:12:10;17.58;;;8.30;;
20986;SDS011;10652;50.306;8.570;2023-07-02T21:16:12;25.23;;;8.52;;
20986;SDS011;10652;50.306;8.570;2023-07-02T21:20:14;14.20;;;7.75;;
20986;SDS011;10652;50.306;8.570;2023-07-02T21:24:17;15.60;;;7.93;;
20986;SDS011;10652;50.306;8.570;2023-07-02T21:28:19;15.38;;;7.85;;
20986;SDS011;10652;50.306;8.570;2023-07-02T21:32:23;18.15;;;7.97;;
20986;SDS011;10652;50.306;8.570;2023-07-02T21:36:26;15.73;;;7.15;;
20986;SDS011;10652;50.306;8.570;2023-07-02T21:40:28;14.93;;;7.90;;
20986;SDS011;10652;50.306;8.570;2023-07-02T21:44:30;15.52;;;7.03;;
20986;SDS011;10652;50.306;8.570;2023-07-02T21:48:32;13.55;;;6.95;;
20986;SDS011;10652;50.306;8.570;2023-07-02T21:52:35;13.05;;;7.05;;
20986;SDS011;10652;50.306;8.570;2023-07-02T21:56:37;14.38;;;7.38;;
20986;SDS011;10652;50.306;8.570;2023-07-02T22:00:39;14.18;;;7.10;;
20986;SDS011;10652;50.306;8.570;2023-07-02T22:04:42;12.05;;;6.88;;
20986;SDS011;10652;50.306;8.570;2023-07-02T22:08:47;12.90;;;6.47;;
20986;SDS011;10652;50.306;8.570;2023-07-02T22:12:49;14.98;;;6.57;;
20986;SDS011;10652;50.306;8.570;2023-07-02T22:16:51;15.35;;;6.97;;
20986;SDS011;10652;50.306;8.570;2023-07-02T22:20:55;14.30;;;6.78;;
20986;SDS011;10652;50.306;8.570;2023-07-02T22:24:57;11.18;;;6.30;;
20986;SDS011;10652;50.306;8.570;2023-07-02T22:29:00;16.05;;;6.82;;
20986;SDS011;10652;50.306;8.570;2023-07-02T22:33:02;18.15;;;7.18;;
20986;SDS011;10652;50.306;8.570;2023-07-02T22:37:05;14.32;;;6.40;;
20986;SDS011;10652;50.306;8.570;2023-07-02T22:41:07;13.60;;;6.10;;
20986;SDS011;10652;50.306;8.570;2023-07-02T22:45:09;14.77;;;6.75;;
20986;SDS011;10652;50.306;8.570;2023-07-02T22:49:13;15.05;;;6.65;;
20986;SDS011;10652;50.306;8.570;2023-07-02T22:53:15;13.25;;;6.63;;
20986;SDS011;10652;50.306;8.570;2023-07-02T22:57:18;12.07;;;6.22;;
20986;SDS011;10652;50.306;8.570;2023-07-02T23:01:20;12.68;;;6.65;;
20986;SDS011;10652;50.306;8.570;2023-07-02T23:05:22;11.25;;;6.70;;
20986;SDS011;10652;50.306;8.570;2023-07-02T23:09:25;15.07;;;7.03;;
20986;SDS011;10652;50.306;8.570;2023-07-02T23:13:27;12.48;;;5.80;;
20986;SDS011;10652;50.306;8.570;2023-07-02T23:17:30;12.82;;;6.68;;
20986;SDS011;10652;50.306;8.570;2023-07-02T23:21:32;16.40;;;6.95;;
20986;SDS011;10652;50.306;8.570;2023-07-02T23:25:34;13.60;;;6.82;;
20986;SDS011;10652;50.306;8.570;2023-07-02T23:29:36;17.50;;;7.45;;
20986;SDS011;10652;50.306;8.570;2023-07-02T23:33:39;16.15;;;6.88;;
20986;SDS011;10652;50.306;8.570;2023-07-02T23:37:41;13.55;;;6.57;;
20986;SDS011;10652;50.306;8.570;2023-07-02T23:41:47;12.88;;;6.72;;
20986;SDS011;10652;50.306;8.570;2023-07-02T23:45:49;14.18;;;6.68;;
20986;SDS011;10652;50.306;8.570;2023-07-02T23:49:52;14.38;;;6.85;;
20986;SDS011;10652;50.306;8.570;2023-07-02T23:53:54;19.58;;;7.05;;
20986;SDS011;10652;50.306;8.570;2023-07-02T23:57:56;12.15;;;6.35;;
